sensor_id;sensor_type;location;lat;lon;timestamp;pressure;altitude;pressure_sealevel;temperature;humidity
55263;BME280;41125;48.752;9.168;2023-04-27T00:00:10;96918.19;;;7.56;58.68
55263;BME280;41125;48.752;9.168;2023-04-27T00:00:43;96921.97;;;7.55;58.48
55263;BME280;41125;48.752;9.168;2023-04-27T00:01:15;96920.88;;;7.56;58.75
55263;BME280;41125;48.752;9.168;2023-04-27T00:01:46;96908.47;;;7.55;58.79
55263;BME280;41125;48.752;9.168;2023-04-27T00:02:18;96919.25;;;7.55;59.18
55263;BME280;41125;48.752;9.168;2023-04-27T00:02:53;96914.94;;;7.54;58.96
55263;BME280;41125;48.752;9.168;2023-04-27T00:03:24;96920.34;;;7.54;59.04
55263;BME280;41125;48.752;9.168;2023-04-27T00:03:56;96917.62;;;7.54;59.17
55263;BME280;41125;48.752;9.168;2023-04-27T00:04:28;96917.62;;;7.54;59.15
55263;BME280;41125;48.752;9.168;2023-04-27T00:05:00;96922.22;;;7.53;59.18
55263;BME280;41125;48.752;9.168;2023-04-27T00:05:35;96919.81;;;7.52;59.30
55263;BME280;41125;48.752;9.168;2023-04-27T00:06:08;96920.59;;;7.52;59.20
55263;BME280;41125;48.752;9.168;2023-04-27T00:06:40;96909.00;;;7.52;59.19
55263;BME280;41125;48.752;9.168;2023-04-27T00:07:11;96920.88;;;7.51;59.63
55263;BME280;41125;48.752;9.168;2023-04-27T00:07:42;96918.19;;;7.51;59.45
55263;BME280;41125;48.752;9.168;2023-04-27T00:08:13;96912.78;;;7.51;59.54
55263;BME280;41125;48.752;9.168;2023-04-27T00:08:44;96907.37;;;7.51;59.52
55263;BME280;41125;48.752;9.168;2023-04-27T00:09:16;96915.47;;;7.51;59.39
55263;BME280;41125;48.752;9.168;2023-04-27T00:09:47;96915.47;;;7.51;59.49
55263;BME280;41125;48.752;9.168;2023-04-27T00:10:19;96916.56;;;7.50;59.43
55263;BME280;41125;48.752;9.168;2023-04-27T00:10:50;96911.16;;;7.50;59.57
55263;BME280;41125;48.752;9.168;2023-04-27T00:11:21;96913.87;;;7.50;59.61
55263;BME280;41125;48.752;9.168;2023-04-27T00:11:52;96911.16;;;7.50;59.54
55263;BME280;41125;48.752;9.168;2023-04-27T00:12:23;96911.16;;;7.50;59.35
55263;BME280;41125;48.752;9.168;2023-04-27T00:12:55;96905.75;;;7.50;59.46
55263;BME280;41125;48.752;9.168;2023-04-27T00:13:27;96910.34;;;7.49;59.50
55263;BME280;41125;48.752;9.168;2023-04-27T00:13:59;96906.56;;;7.50;59.26
55263;BME280;41125;48.752;9.168;2023-04-27T00:14:32;96912.78;;;7.51;59.53
55263;BME280;41125;48.752;9.168;2023-04-27T00:15:08;96909.53;;;7.49;59.43
55263;BME280;41125;48.752;9.168;2023-04-27T00:15:40;96904.16;;;7.49;59.45
55263;BME280;41125;48.752;9.168;2023-04-27T00:16:11;96905.22;;;7.48;59.27
55263;BME280;41125;48.752;9.168;2023-04-27T00:16:46;96913.31;;;7.48;59.55
55263;BME280;41125;48.752;9.168;2023-04-27T00:17:18;96907.94;;;7.48;59.60
55263;BME280;41125;48.752;9.168;2023-04-27T00:17:51;96907.94;;;7.48;59.71
55263;BME280;41125;48.752;9.168;2023-04-27T00:18:22;96907.94;;;7.48;59.54
55263;BME280;41125;48.752;9.168;2023-04-27T00:18:53;96905.22;;;7.48;59.74
55263;BME280;41125;48.752;9.168;2023-04-27T00:19:25;96902.53;;;7.48;59.87
55263;BME280;41125;48.752;9.168;2023-04-27T00:19:58;96911.44;;;7.48;59.92
55263;BME280;41125;48.752;9.168;2023-04-27T00:20:30;96902.53;;;7.48;59.68
55263;BME280;41125;48.752;9.168;2023-04-27T00:21:02;96909.53;;;7.49;59.77
55263;BME280;41125;48.752;9.168;2023-04-27T00:21:34;96907.94;;;7.48;59.83
55263;BME280;41125;48.752;9.168;2023-04-27T00:22:06;96910.62;;;7.48;59.78
55263;BME280;41125;48.752;9.168;2023-04-27T00:22:38;96907.94;;;7.48;59.78
55263;BME280;41125;48.752;9.168;2023-04-27T00:23:10;96906.31;;;7.47;59.83
55263;BME280;41125;48.752;9.168;2023-04-27T00:23:41;96909.53;;;7.49;59.88
55263;BME280;41125;48.752;9.168;2023-04-27T00:24:12;96907.94;;;7.48;59.70
55263;BME280;41125;48.752;9.168;2023-04-27T00:24:43;96902.53;;;7.48;59.10
55263;BME280;41125;48.752;9.168;2023-04-27T00:25:16;96903.34;;;7.48;59.17
55263;BME280;41125;48.752;9.168;2023-04-27T00:25:47;96900.38;;;7.50;58.70
55263;BME280;41125;48.752;9.168;2023-04-27T00:26:18;96899.28;;;7.51;58.40
55263;BME280;41125;48.752;9.168;2023-04-27T00:26:51;96892.81;;;7.52;58.09
55263;BME280;41125;48.752;9.168;2023-04-27T00:27:22;96892.81;;;7.52;58.40
55263;BME280;41125;48.752;9.168;2023-04-27T00:27:55;96899.00;;;7.52;58.11
55263;BME280;41125;48.752;9.168;2023-04-27T00:28:28;96893.63;;;7.52;58.14
55263;BME280;41125;48.752;9.168;2023-04-27T00:28:59;96894.69;;;7.51;58.36
55263;BME280;41125;48.752;9.168;2023-04-27T00:29:31;96909.53;;;7.49;60.96
55263;BME280;41125;48.752;9.168;2023-04-27T00:30:03;96924.66;;;7.45;62.78
55263;BME280;41125;48.752;9.168;2023-04-27T00:30:38;96927.38;;;7.39;62.94
55263;BME280;41125;48.752;9.168;2023-04-27T00:31:10;96926.00;;;7.37;62.83
55263;BME280;41125;48.752;9.168;2023-04-27T00:31:42;96912.78;;;7.35;62.22
55263;BME280;41125;48.752;9.168;2023-04-27T00:32:14;96920.88;;;7.35;61.85
55263;BME280;41125;48.752;9.168;2023-04-27T00:32:45;96920.88;;;7.35;62.26
55263;BME280;41125;48.752;9.168;2023-04-27T00:33:16;96917.38;;;7.35;62.47
55263;BME280;41125;48.752;9.168;2023-04-27T00:33:47;96917.66;;;7.33;61.92
55263;BME280;41125;48.752;9.168;2023-04-27T00:34:19;96916.84;;;7.33;61.96
55263;BME280;41125;48.752;9.168;2023-04-27T00:34:50;96914.13;;;7.33;62.04
55263;BME280;41125;48.752;9.168;2023-04-27T00:35:24;96915.22;;;7.32;61.77
55263;BME280;41125;48.752;9.168;2023-04-27T00:35:59;96919.00;;;7.31;62.52
55263;BME280;41125;48.752;9.168;2023-04-27T00:36:33;96918.19;;;7.30;62.55
55263;BME280;41125;48.752;9.168;2023-04-27T00:37:05;96916.56;;;7.29;62.56
55263;BME280;41125;48.752;9.168;2023-04-27T00:37:36;96919.53;;;7.28;62.31
55263;BME280;41125;48.752;9.168;2023-04-27T00:38:07;96913.34;;;7.27;62.39
55263;BME280;41125;48.752;9.168;2023-04-27T00:38:39;96917.94;;;7.27;62.40
55263;BME280;41125;48.752;9.168;2023-04-27T00:39:13;96917.13;;;7.26;62.35
55263;BME280;41125;48.752;9.168;2023-04-27T00:39:45;96917.13;;;7.26;62.26
55263;BME280;41125;48.752;9.168;2023-04-27T00:40:16;96911.75;;;7.26;62.39
55263;BME280;41125;48.752;9.168;2023-04-27T00:40:47;96909.03;;;7.26;61.96
55263;BME280;41125;48.752;9.168;2023-04-27T00:41:19;96912.56;;;7.27;62.15
55263;BME280;41125;48.752;9.168;2023-04-27T00:41:51;96910.12;;;7.25;61.87
55263;BME280;41125;48.752;9.168;2023-04-27T00:42:22;96909.84;;;7.27;61.89
55263;BME280;41125;48.752;9.168;2023-04-27T00:42:55;96907.97;;;7.27;62.13
55263;BME280;41125;48.752;9.168;2023-04-27T00:43:27;96901.75;;;7.27;61.79
55263;BME280;41125;48.752;9.168;2023-04-27T00:43:58;96899.87;;;7.27;62.07
55263;BME280;41125;48.752;9.168;2023-04-27T00:44:29;96897.16;;;7.27;61.77
55263;BME280;41125;48.752;9.168;2023-04-27T00:45:02;96904.16;;;7.28;62.00
55263;BME280;41125;48.752;9.168;2023-04-27T00:45:40;96901.44;;;7.28;61.97
55263;BME280;41125;48.752;9.168;2023-04-27T00:46:16;96904.97;;;7.29;62.18
55263;BME280;41125;48.752;9.168;2023-04-27T00:46:49;96899.56;;;7.29;61.68
55263;BME280;41125;48.752;9.168;2023-04-27T00:47:21;96897.94;;;7.28;61.74
55263;BME280;41125;48.752;9.168;2023-04-27T00:47:52;96904.97;;;7.29;61.74
55263;BME280;41125;48.752;9.168;2023-04-27T00:48:24;96905.78;;;7.29;61.63
55263;BME280;41125;48.752;9.168;2023-04-27T00:48:57;96898.75;;;7.28;61.48
55263;BME280;41125;48.752;9.168;2023-04-27T00:49:29;96907.97;;;7.27;61.31
55263;BME280;41125;48.752;9.168;2023-04-27T00:50:01;96901.44;;;7.28;61.52
55263;BME280;41125;48.752;9.168;2023-04-27T00:50:34;96896.06;;;7.28;61.56
55263;BME280;41125;48.752;9.168;2023-04-27T00:51:08;96896.88;;;7.29;61.56
55263;BME280;41125;48.752;9.168;2023-04-27T00:51:41;96896.34;;;7.27;61.49
55263;BME280;41125;48.752;9.168;2023-04-27T00:52:14;96893.66;;;7.27;61.35
55263;BME280;41125;48.752;9.168;2023-04-27T00:52:51;96897.16;;;7.27;61.67
55263;BME280;41125;48.752;9.168;2023-04-27T00:53:28;96894.47;;;7.27;61.48
55263;BME280;41125;48.752;9.168;2023-04-27T00:54:01;96898.25;;;7.26;61.77
55263;BME280;41125;48.752;9.168;2023-04-27T00:54:32;96894.72;;;7.26;61.73
55263;BME280;41125;48.752;9.168;2023-04-27T00:55:05;96898.25;;;7.26;61.74
55263;BME280;41125;48.752;9.168;2023-04-27T00:55:37;96896.34;;;7.27;61.73
55263;BME280;41125;48.752;9.168;2023-04-27T00:56:08;96893.66;;;7.27;61.86
55263;BME280;41125;48.752;9.168;2023-04-27T00:56:39;96891.75;;;7.27;61.62
55263;BME280;41125;48.752;9.168;2023-04-27T00:57:11;96898.25;;;7.26;61.67
55263;BME280;41125;48.752;9.168;2023-04-27T00:57:42;96894.47;;;7.27;61.28
55263;BME280;41125;48.752;9.168;2023-04-27T00:58:17;96886.38;;;7.27;61.11
55263;BME280;41125;48.752;9.168;2023-04-27T00:58:48;96894.16;;;7.29;60.76
55263;BME280;41125;48.752;9.168;2023-04-27T00:59:20;96887.97;;;7.28;60.68
55263;BME280;41125;48.752;9.168;2023-04-27T00:59:52;96883.09;;;7.30;60.46
55263;BME280;41125;48.752;9.168;2023-04-27T01:00:24;96885.78;;;7.30;60.41
55263;BME280;41125;48.752;9.168;2023-04-27T01:00:55;96882.03;;;7.31;60.28
55263;BME280;41125;48.752;9.168;2023-04-27T01:01:28;96887.97;;;7.33;60.31
55263;BME280;41125;48.752;9.168;2023-04-27T01:02:00;96886.06;;;7.34;60.02
55263;BME280;41125;48.752;9.168;2023-04-27T01:02:36;96888.50;;;7.35;60.26
55263;BME280;41125;48.752;9.168;2023-04-27T01:03:07;96888.50;;;7.35;60.01
55263;BME280;41125;48.752;9.168;2023-04-27T01:03:39;96890.94;;;7.37;60.18
55263;BME280;41125;48.752;9.168;2023-04-27T01:04:12;96891.72;;;7.37;59.89
55263;BME280;41125;48.752;9.168;2023-04-27T01:04:43;96892.53;;;7.38;59.88
55263;BME280;41125;48.752;9.168;2023-04-27T01:05:15;96893.34;;;7.38;59.72
55263;BME280;41125;48.752;9.168;2023-04-27T01:05:46;96887.94;;;7.38;59.79
55263;BME280;41125;48.752;9.168;2023-04-27T01:06:18;96891.47;;;7.39;59.67
55263;BME280;41125;48.752;9.168;2023-04-27T01:06:49;96882.56;;;7.38;59.94
55263;BME280;41125;48.752;9.168;2023-04-27T01:07:25;96894.97;;;7.39;59.94
55263;BME280;41125;48.752;9.168;2023-04-27T01:07:56;96889.56;;;7.39;59.95
55263;BME280;41125;48.752;9.168;2023-04-27T01:08:28;96894.16;;;7.39;59.70
55263;BME280;41125;48.752;9.168;2023-04-27T01:08:59;96884.19;;;7.39;59.89
55263;BME280;41125;48.752;9.168;2023-04-27T01:09:30;96889.56;;;7.39;59.55
55263;BME280;41125;48.752;9.168;2023-04-27T01:10:06;96882.56;;;7.38;59.78
55263;BME280;41125;48.752;9.168;2023-04-27T01:10:38;96886.34;;;7.37;59.86
55263;BME280;41125;48.752;9.168;2023-04-27T01:11:12;96887.94;;;7.38;59.85
55263;BME280;41125;48.752;9.168;2023-04-27T01:11:44;96888.75;;;7.39;59.82
55263;BME280;41125;48.752;9.168;2023-04-27T01:12:17;96891.47;;;7.39;60.22
55263;BME280;41125;48.752;9.168;2023-04-27T01:12:48;96889.84;;;7.38;60.15
55263;BME280;41125;48.752;9.168;2023-04-27T01:13:19;96889.03;;;7.37;60.65
55263;BME280;41125;48.752;9.168;2023-04-27T01:13:51;96900.91;;;7.36;60.90
55263;BME280;41125;48.752;9.168;2023-04-27T01:14:25;96896.06;;;7.33;61.51
55263;BME280;41125;48.752;9.168;2023-04-27T01:14:56;96902.25;;;7.34;61.57
55263;BME280;41125;48.752;9.168;2023-04-27T01:15:28;96902.00;;;7.30;61.63
55263;BME280;41125;48.752;9.168;2023-04-27T01:16:00;96894.97;;;7.29;61.47
55263;BME280;41125;48.752;9.168;2023-04-27T01:16:32;96905.78;;;7.29;61.57
55263;BME280;41125;48.752;9.168;2023-04-27T01:17:04;96899.56;;;7.29;61.78
55263;BME280;41125;48.752;9.168;2023-04-27T01:17:35;96900.66;;;7.28;62.03
55263;BME280;41125;48.752;9.168;2023-04-27T01:18:07;96902.56;;;7.27;62.00
55263;BME280;41125;48.752;9.168;2023-04-27T01:18:38;96896.34;;;7.27;61.83
55263;BME280;41125;48.752;9.168;2023-04-27T01:19:10;96899.31;;;7.25;62.11
55263;BME280;41125;48.752;9.168;2023-04-27T01:19:42;96899.31;;;7.25;62.06
55263;BME280;41125;48.752;9.168;2023-04-27T01:20:15;96898.50;;;7.25;62.03
55263;BME280;41125;48.752;9.168;2023-04-27T01:20:46;96905.00;;;7.24;62.21
55263;BME280;41125;48.752;9.168;2023-04-27T01:21:17;96907.69;;;7.24;62.44
55263;BME280;41125;48.752;9.168;2023-04-27T01:21:49;96901.47;;;7.23;62.55
55263;BME280;41125;48.752;9.168;2023-04-27T01:22:20;96905.25;;;7.22;62.34
55263;BME280;41125;48.752;9.168;2023-04-27T01:22:52;96906.87;;;7.23;62.78
55263;BME280;41125;48.752;9.168;2023-04-27T01:23:23;96906.87;;;7.23;62.66
55263;BME280;41125;48.752;9.168;2023-04-27T01:23:55;96905.25;;;7.22;62.82
55263;BME280;41125;48.752;9.168;2023-04-27T01:24:26;96909.03;;;7.21;63.67
55263;BME280;41125;48.752;9.168;2023-04-27T01:24:58;96911.19;;;7.19;63.51
55263;BME280;41125;48.752;9.168;2023-04-27T01:25:29;96914.16;;;7.18;63.48
55263;BME280;41125;48.752;9.168;2023-04-27T01:26:00;96916.31;;;7.16;63.32
55263;BME280;41125;48.752;9.168;2023-04-27T01:26:32;96913.91;;;7.14;63.89
55263;BME280;41125;48.752;9.168;2023-04-27T01:27:04;96913.09;;;7.14;63.41
55263;BME280;41125;48.752;9.168;2023-04-27T01:27:35;96910.66;;;7.12;63.82
55263;BME280;41125;48.752;9.168;2023-04-27T01:28:06;96913.34;;;7.12;64.16
55263;BME280;41125;48.752;9.168;2023-04-27T01:28:42;96923.59;;;7.10;63.86
55263;BME280;41125;48.752;9.168;2023-04-27T01:29:13;96919.28;;;7.09;64.11
55263;BME280;41125;48.752;9.168;2023-04-27T01:29:45;96920.38;;;7.08;64.08
55263;BME280;41125;48.752;9.168;2023-04-27T01:30:17;96914.16;;;7.07;64.16
55263;BME280;41125;48.752;9.168;2023-04-27T01:30:49;96911.47;;;7.07;64.29
55263;BME280;41125;48.752;9.168;2023-04-27T01:31:20;96918.75;;;7.07;64.40
55263;BME280;41125;48.752;9.168;2023-04-27T01:31:51;96912.53;;;7.06;64.31
55263;BME280;41125;48.752;9.168;2023-04-27T01:32:22;96912.53;;;7.06;64.29
55263;BME280;41125;48.752;9.168;2023-04-27T01:32:54;96912.28;;;7.08;64.37
55263;BME280;41125;48.752;9.168;2023-04-27T01:33:26;96914.97;;;7.08;64.13
55263;BME280;41125;48.752;9.168;2023-04-27T01:33:57;96918.75;;;7.07;65.00
55263;BME280;41125;48.752;9.168;2023-04-27T01:34:29;96918.19;;;7.05;64.62
55263;BME280;41125;48.752;9.168;2023-04-27T01:35:00;96920.09;;;7.04;64.82
55263;BME280;41125;48.752;9.168;2023-04-27T01:35:31;96917.66;;;7.03;64.71
55263;BME280;41125;48.752;9.168;2023-04-27T01:36:07;96919.53;;;7.02;64.48
55263;BME280;41125;48.752;9.168;2023-04-27T01:36:38;96916.03;;;7.02;64.41
55263;BME280;41125;48.752;9.168;2023-04-27T01:37:10;96919.81;;;7.01;64.71
55263;BME280;41125;48.752;9.168;2023-04-27T01:37:41;96914.41;;;7.01;64.34
55263;BME280;41125;48.752;9.168;2023-04-27T01:38:13;96917.94;;;7.01;64.38
55263;BME280;41125;48.752;9.168;2023-04-27T01:38:44;96918.72;;;7.02;64.37
55263;BME280;41125;48.752;9.168;2023-04-27T01:39:16;96908.47;;;6.99;63.95
55263;BME280;41125;48.752;9.168;2023-04-27T01:39:47;96914.97;;;7.03;64.12
55263;BME280;41125;48.752;9.168;2023-04-27T01:40:19;96909.03;;;7.01;64.01
55263;BME280;41125;48.752;9.168;2023-04-27T01:40:52;96906.31;;;7.01;64.07
55263;BME280;41125;48.752;9.168;2023-04-27T01:41:25;96918.19;;;7.00;65.03
55263;BME280;41125;48.752;9.168;2023-04-27T01:41:56;96913.06;;;6.98;65.23
55263;BME280;41125;48.752;9.168;2023-04-27T01:42:27;96914.94;;;6.98;65.01
55263;BME280;41125;48.752;9.168;2023-04-27T01:42:58;96918.72;;;6.97;65.74
55263;BME280;41125;48.752;9.168;2023-04-27T01:43:30;96921.44;;;6.97;65.72
55263;BME280;41125;48.752;9.168;2023-04-27T01:44:02;96916.56;;;6.94;66.42
55263;BME280;41125;48.752;9.168;2023-04-27T01:44:34;96918.44;;;6.93;65.97
55263;BME280;41125;48.752;9.168;2023-04-27T01:45:07;96913.34;;;6.92;66.32
55263;BME280;41125;48.752;9.168;2023-04-27T01:45:40;96921.44;;;6.92;66.62
55263;BME280;41125;48.752;9.168;2023-04-27T01:46:13;96912.81;;;6.90;66.54
55263;BME280;41125;48.752;9.168;2023-04-27T01:46:45;96917.66;;;6.88;65.97
55263;BME280;41125;48.752;9.168;2023-04-27T01:47:17;96911.47;;;6.87;65.92
55263;BME280;41125;48.752;9.168;2023-04-27T01:47:52;96913.34;;;6.87;65.33
55263;BME280;41125;48.752;9.168;2023-04-27T01:48:23;96911.19;;;6.89;65.46
55263;BME280;41125;48.752;9.168;2023-04-27T01:48:54;96914.97;;;6.88;65.22
55263;BME280;41125;48.752;9.168;2023-04-27T01:49:26;96911.19;;;6.89;65.07
55263;BME280;41125;48.752;9.168;2023-04-27T01:49:58;96908.75;;;6.87;64.96
55263;BME280;41125;48.752;9.168;2023-04-27T01:50:30;96912.81;;;6.90;64.97
55263;BME280;41125;48.752;9.168;2023-04-27T01:51:02;96903.66;;;6.91;64.68
55263;BME280;41125;48.752;9.168;2023-04-27T01:51:33;96899.87;;;6.92;64.48
55263;BME280;41125;48.752;9.168;2023-04-27T01:52:08;96908.78;;;6.92;64.16
55263;BME280;41125;48.752;9.168;2023-04-27T01:52:39;96909.03;;;6.91;64.10
55263;BME280;41125;48.752;9.168;2023-04-27T01:53:10;96909.03;;;6.91;63.88
55263;BME280;41125;48.752;9.168;2023-04-27T01:53:42;96909.03;;;6.91;64.07
55263;BME280;41125;48.752;9.168;2023-04-27T01:54:13;96907.97;;;6.92;64.25
55263;BME280;41125;48.752;9.168;2023-04-27T01:54:44;96904.97;;;6.93;64.05
55263;BME280;41125;48.752;9.168;2023-04-27T01:55:16;96906.59;;;6.94;63.77
55263;BME280;41125;48.752;9.168;2023-04-27T01:55:47;96905.78;;;6.94;64.02
55263;BME280;41125;48.752;9.168;2023-04-27T01:56:19;96911.72;;;6.96;63.93
55263;BME280;41125;48.752;9.168;2023-04-27T01:56:50;96912.53;;;6.96;63.99
55263;BME280;41125;48.752;9.168;2023-04-27T01:57:21;96911.72;;;6.96;63.90
55263;BME280;41125;48.752;9.168;2023-04-27T01:57:53;96906.31;;;6.96;63.62
55263;BME280;41125;48.752;9.168;2023-04-27T01:58:26;96907.41;;;6.95;63.54
55263;BME280;41125;48.752;9.168;2023-04-27T01:58:57;96906.87;;;6.98;63.69
55263;BME280;41125;48.752;9.168;2023-04-27T01:59:29;96910.38;;;6.98;63.90
55263;BME280;41125;48.752;9.168;2023-04-27T02:00:00;96918.72;;;6.97;63.90
55263;BME280;41125;48.752;9.168;2023-04-27T02:00:35;96916.31;;;6.95;64.12
55263;BME280;41125;48.752;9.168;2023-04-27T02:01:06;96918.44;;;6.93;64.49
55263;BME280;41125;48.752;9.168;2023-04-27T02:01:37;96916.06;;;6.92;64.09
55263;BME280;41125;48.752;9.168;2023-04-27T02:02:08;96922.53;;;6.91;64.17
55263;BME280;41125;48.752;9.168;2023-04-27T02:02:40;96912.00;;;6.89;63.87
55263;BME280;41125;48.752;9.168;2023-04-27T02:03:11;96918.22;;;6.90;63.81
55263;BME280;41125;48.752;9.168;2023-04-27T02:03:42;96916.59;;;6.89;64.10
55263;BME280;41125;48.752;9.168;2023-04-27T02:04:14;96912.28;;;6.88;64.26
55263;BME280;41125;48.752;9.168;2023-04-27T02:04:45;96909.56;;;6.88;64.25
55263;BME280;41125;48.752;9.168;2023-04-27T02:05:16;96917.13;;;6.86;64.62
55263;BME280;41125;48.752;9.168;2023-04-27T02:05:47;96916.31;;;6.85;64.48
55263;BME280;41125;48.752;9.168;2023-04-27T02:06:19;96915.50;;;6.85;64.40
55263;BME280;41125;48.752;9.168;2023-04-27T02:06:50;96913.63;;;6.85;64.22
55263;BME280;41125;48.752;9.168;2023-04-27T02:07:22;96913.87;;;6.84;64.86
55263;BME280;41125;48.752;9.168;2023-04-27T02:07:53;96912.25;;;6.83;64.37
55263;BME280;41125;48.752;9.168;2023-04-27T02:08:25;96916.03;;;6.82;64.38
55263;BME280;41125;48.752;9.168;2023-04-27T02:08:56;96919.00;;;6.80;64.59
55263;BME280;41125;48.752;9.168;2023-04-27T02:09:31;96919.00;;;6.80;64.45
55263;BME280;41125;48.752;9.168;2023-04-27T02:10:06;96912.78;;;6.80;64.68
55263;BME280;41125;48.752;9.168;2023-04-27T02:10:37;96925.72;;;6.78;65.99
55263;BME280;41125;48.752;9.168;2023-04-27T02:11:08;96924.13;;;6.77;66.34
55263;BME280;41125;48.752;9.168;2023-04-27T02:11:40;96931.66;;;6.75;66.26
55263;BME280;41125;48.752;9.168;2023-04-27T02:12:11;96935.44;;;6.73;66.91
55263;BME280;41125;48.752;9.168;2023-04-27T02:12:42;96934.06;;;6.71;67.14
55263;BME280;41125;48.752;9.168;2023-04-27T02:13:13;96928.13;;;6.69;67.45
55263;BME280;41125;48.752;9.168;2023-04-27T02:13:45;96935.69;;;6.67;67.46
55263;BME280;41125;48.752;9.168;2023-04-27T02:14:16;96944.59;;;6.67;67.51
55263;BME280;41125;48.752;9.168;2023-04-27T02:14:47;96935.94;;;6.65;67.16
55263;BME280;41125;48.752;9.168;2023-04-27T02:15:18;96942.41;;;6.64;67.17
55263;BME280;41125;48.752;9.168;2023-04-27T02:15:50;96940.78;;;6.63;67.83
55263;BME280;41125;48.752;9.168;2023-04-27T02:16:22;96949.97;;;6.62;69.96
55263;BME280;41125;48.752;9.168;2023-04-27T02:16:53;96953.72;;;6.61;69.06
55263;BME280;41125;48.752;9.168;2023-04-27T02:17:24;96950.50;;;6.59;68.27
55263;BME280;41125;48.752;9.168;2023-04-27T02:17:56;96943.50;;;6.58;68.52
55263;BME280;41125;48.752;9.168;2023-04-27T02:18:28;96940.25;;;6.56;68.10
55263;BME280;41125;48.752;9.168;2023-04-27T02:18:59;96948.62;;;6.55;68.05
55263;BME280;41125;48.752;9.168;2023-04-27T02:19:31;96951.56;;;6.53;68.29
55263;BME280;41125;48.752;9.168;2023-04-27T02:20:03;96942.94;;;6.51;67.96
55263;BME280;41125;48.752;9.168;2023-04-27T02:20:36;96944.56;;;6.52;67.62
55263;BME280;41125;48.752;9.168;2023-04-27T02:21:10;96949.97;;;6.52;68.41
55263;BME280;41125;48.752;9.168;2023-04-27T02:21:41;96947.53;;;6.51;68.75
55263;BME280;41125;48.752;9.168;2023-04-27T02:22:12;96956.69;;;6.50;69.27
55263;BME280;41125;48.752;9.168;2023-04-27T02:22:44;96953.97;;;6.45;70.51
55263;BME280;41125;48.752;9.168;2023-04-27T02:23:15;96953.41;;;6.43;70.14
55263;BME280;41125;48.752;9.168;2023-04-27T02:23:48;96959.06;;;6.41;70.64
55263;BME280;41125;48.752;9.168;2023-04-27T02:24:19;96952.06;;;6.40;69.67
55263;BME280;41125;48.752;9.168;2023-04-27T02:24:51;96952.06;;;6.40;70.79
55263;BME280;41125;48.752;9.168;2023-04-27T02:25:27;96955.81;;;6.39;70.37
55263;BME280;41125;48.752;9.168;2023-04-27T02:25:58;96945.06;;;6.39;69.67
55263;BME280;41125;48.752;9.168;2023-04-27T02:26:30;96952.06;;;6.40;69.43
55263;BME280;41125;48.752;9.168;2023-04-27T02:27:02;96949.91;;;6.42;69.26
55263;BME280;41125;48.752;9.168;2023-04-27T02:27:39;96946.97;;;6.44;69.40
55263;BME280;41125;48.752;9.168;2023-04-27T02:28:10;96954.78;;;6.45;69.66
55263;BME280;41125;48.752;9.168;2023-04-27T02:28:51;96949.38;;;6.45;70.01
55263;BME280;41125;48.752;9.168;2023-04-27T02:29:22;96947.75;;;6.44;69.73
55263;BME280;41125;48.752;9.168;2023-04-27T02:29:53;96948.84;;;6.43;69.51
55263;BME280;41125;48.752;9.168;2023-04-27T02:30:24;96944.53;;;6.42;69.69
55263;BME280;41125;48.752;9.168;2023-04-27T02:30:56;96945.34;;;6.43;69.31
55263;BME280;41125;48.752;9.168;2023-04-27T02:31:27;96946.16;;;6.43;69.44
55263;BME280;41125;48.752;9.168;2023-04-27T02:31:59;96946.16;;;6.43;69.73
55263;BME280;41125;48.752;9.168;2023-04-27T02:32:31;96950.47;;;6.44;69.54
55263;BME280;41125;48.752;9.168;2023-04-27T02:33:03;96954.22;;;6.43;69.69
55263;BME280;41125;48.752;9.168;2023-04-27T02:33:34;96951.78;;;6.42;69.92
55263;BME280;41125;48.752;9.168;2023-04-27T02:34:06;96955.81;;;6.39;69.92
55263;BME280;41125;48.752;9.168;2023-04-27T02:34:40;96942.63;;;6.37;69.68
55263;BME280;41125;48.752;9.168;2023-04-27T02:35:12;96948.53;;;6.34;70.50
55263;BME280;41125;48.752;9.168;2023-04-27T02:35:43;96952.31;;;6.33;71.25
55263;BME280;41125;48.752;9.168;2023-04-27T02:36:15;96954.19;;;6.33;71.87
55263;BME280;41125;48.752;9.168;2023-04-27T02:36:46;96944.47;;;6.32;71.49
55263;BME280;41125;48.752;9.168;2023-04-27T02:37:17;96947.19;;;6.32;70.64
55263;BME280;41125;48.752;9.168;2023-04-27T02:37:49;96945.84;;;6.34;70.87
55263;BME280;41125;48.752;9.168;2023-04-27T02:38:20;96946.66;;;6.35;70.54
55263;BME280;41125;48.752;9.168;2023-04-27T02:38:51;96953.13;;;6.34;71.64
55263;BME280;41125;48.752;9.168;2023-04-27T02:39:22;96947.72;;;6.34;71.70
55263;BME280;41125;48.752;9.168;2023-04-27T02:39:53;96952.31;;;6.33;71.79
55263;BME280;41125;48.752;9.168;2023-04-27T02:40:25;96946.91;;;6.33;72.14
55263;BME280;41125;48.752;9.168;2023-04-27T02:40:57;96951.50;;;6.33;72.69
55263;BME280;41125;48.752;9.168;2023-04-27T02:41:31;96952.31;;;6.33;72.81
55263;BME280;41125;48.752;9.168;2023-04-27T02:42:03;96955.25;;;6.32;72.77
55263;BME280;41125;48.752;9.168;2023-04-27T02:42:35;96956.34;;;6.31;72.40
55263;BME280;41125;48.752;9.168;2023-04-27T02:43:08;96949.06;;;6.31;72.16
55263;BME280;41125;48.752;9.168;2023-04-27T02:43:40;96951.50;;;6.33;72.32
55263;BME280;41125;48.752;9.168;2023-04-27T02:44:11;96949.88;;;6.32;72.66
55263;BME280;41125;48.752;9.168;2023-04-27T02:44:43;96952.56;;;6.32;72.82
55263;BME280;41125;48.752;9.168;2023-04-27T02:45:14;96952.81;;;6.30;73.71
55263;BME280;41125;48.752;9.168;2023-04-27T02:45:45;96954.97;;;6.28;74.14
55263;BME280;41125;48.752;9.168;2023-04-27T02:46:17;96951.47;;;6.28;73.66
55263;BME280;41125;48.752;9.168;2023-04-27T02:46:49;96950.41;;;6.29;72.93
55263;BME280;41125;48.752;9.168;2023-04-27T02:47:20;96957.41;;;6.30;73.00
55263;BME280;41125;48.752;9.168;2023-04-27T02:47:51;96950.41;;;6.29;73.15
55263;BME280;41125;48.752;9.168;2023-04-27T02:48:23;96949.84;;;6.27;72.95
55263;BME280;41125;48.752;9.168;2023-04-27T02:48:55;96943.38;;;6.28;71.96
55263;BME280;41125;48.752;9.168;2023-04-27T02:49:26;96944.19;;;6.28;71.39
55263;BME280;41125;48.752;9.168;2023-04-27T02:49:59;96946.63;;;6.30;70.94
55263;BME280;41125;48.752;9.168;2023-04-27T02:50:30;96948.25;;;6.31;70.69
55263;BME280;41125;48.752;9.168;2023-04-27T02:51:03;96945.56;;;6.31;70.20
55263;BME280;41125;48.752;9.168;2023-04-27T02:51:34;96948.00;;;6.32;70.17